createdAt,value
2018-07-30T00:00:11.421Z,98860.03
2018-07-30T00:02:46.520Z,98870.12
2018-07-30T00:05:21.645Z,98870.73
2018-07-30T00:07:56.256Z,98868.38
2018-07-30T00:10:30.824Z,98864.03
2018-07-30T00:13:05.495Z,98864.42
2018-07-30T00:15:40.052Z,98864.63
2018-07-30T00:18:14.479Z,98861.66
2018-07-30T00:20:49.404Z,98863.63
2018-07-30T00:23:23.881Z,98874.28
2018-07-30T00:25:58.379Z,98863.40
2018-07-30T00:28:32.807Z,98862.80
2018-07-30T00:31:07.374Z,98862.59
2018-07-30T00:33:41.964Z,98861.00
2018-07-30T00:36:16.581Z,98861.74
2018-07-30T00:38:51.325Z,98869.05
2018-07-30T00:41:26.178Z,98859.91
2018-07-30T00:44:00.548Z,98864.91
2018-07-30T00:46:35.008Z,98857.84
2018-07-30T00:49:09.772Z,98865.61
2018-07-30T00:51:44.329Z,98864.63
2018-07-30T00:54:19.134Z,98868.58
2018-07-30T00:56:54.089Z,98867.59
2018-07-30T00:59:28.460Z,98866.20
2018-07-30T01:02:03.036Z,98869.93
2018-07-30T01:04:37.440Z,98873.87
2018-07-30T01:07:11.851Z,98870.89
2018-07-30T01:09:46.231Z,98880.73
2018-07-30T01:12:22.683Z,98875.38
2018-07-30T01:14:57.190Z,98875.53
2018-07-30T01:17:31.838Z,98877.50
2018-07-30T01:20:06.401Z,98875.11
2018-07-30T01:22:40.756Z,98878.03
2018-07-30T01:25:15.700Z,98874.45
2018-07-30T01:27:50.222Z,98871.26
2018-07-30T01:30:24.591Z,98866.48
2018-07-30T01:32:59.084Z,98864.05
2018-07-30T01:35:33.837Z,98868.14
2018-07-30T01:38:08.359Z,98874.11
2018-07-30T01:40:42.861Z,98871.00
2018-07-30T01:43:17.373Z,98871.33
2018-07-30T01:45:51.833Z,98877.84
2018-07-30T01:48:26.211Z,98874.53
2018-07-30T01:51:00.714Z,98872.50
2018-07-30T01:53:35.221Z,98877.09
2018-07-30T01:56:09.812Z,98877.55
2018-07-30T01:58:44.614Z,98878.69
2018-07-30T02:01:19.473Z,98882.19
2018-07-30T02:03:54.038Z,98879.98
2018-07-30T02:06:28.556Z,98879.55
2018-07-30T02:09:03.387Z,98878.73
2018-07-30T02:11:38.085Z,98880.65
2018-07-30T02:14:12.644Z,98882.32
2018-07-30T02:16:47.045Z,98878.44
2018-07-30T02:19:21.887Z,98877.10
2018-07-30T02:21:56.646Z,98874.11
2018-07-30T02:24:31.080Z,98877.30
2018-07-30T02:27:05.805Z,98879.41
2018-07-30T02:32:41.539Z,98880.85
2018-07-30T02:35:15.980Z,98886.58
2018-07-30T02:37:51.080Z,98889.38
2018-07-30T02:40:25.382Z,98893.44
2018-07-30T02:43:00.076Z,98888.56
2018-07-30T02:45:34.608Z,98892.37
2018-07-30T02:48:09.312Z,98890.46
2018-07-30T02:50:43.630Z,98887.94
2018-07-30T02:53:18.066Z,98886.81
2018-07-30T02:55:52.504Z,98887.40
2018-07-30T02:58:27.293Z,98887.86
2018-07-30T03:01:01.849Z,98883.21
2018-07-30T03:03:36.263Z,98890.33
2018-07-30T03:06:10.878Z,98886.70
2018-07-30T03:08:45.353Z,98883.28
2018-07-30T03:11:19.928Z,98887.70
2018-07-30T03:13:54.412Z,98889.42
2018-07-30T03:16:28.817Z,98890.77
2018-07-30T03:19:03.412Z,98890.33
2018-07-30T03:21:37.924Z,98893.98
2018-07-30T03:24:12.410Z,98888.02
2018-07-30T03:26:46.806Z,98902.83
2018-07-30T03:29:21.288Z,98904.96
2018-07-30T03:31:55.804Z,98903.79
2018-07-30T03:34:30.541Z,98907.94
2018-07-30T03:37:05.132Z,98908.77
2018-07-30T03:39:46.307Z,98908.17
2018-07-30T03:42:21.076Z,98908.97
2018-07-30T03:44:55.504Z,98911.73
2018-07-30T03:47:30.164Z,98914.08
2018-07-30T03:50:04.981Z,98914.66
2018-07-30T03:52:39.336Z,98910.90
2018-07-30T03:55:13.792Z,98915.59
2018-07-30T03:57:48.293Z,98921.73
2018-07-30T04:00:22.906Z,98922.33
2018-07-30T04:02:57.547Z,98920.48
2018-07-30T04:05:32.150Z,98926.56
2018-07-30T04:08:06.633Z,98928.29
2018-07-30T04:10:41.025Z,98934.44
2018-07-30T04:13:15.622Z,98934.97
2018-07-30T04:15:50.142Z,98936.71
2018-07-30T04:18:24.553Z,98937.86
2018-07-30T04:20:59.230Z,98936.33
2018-07-30T04:23:33.628Z,98942.00
2018-07-30T04:26:08.102Z,98936.28
2018-07-30T04:28:42.946Z,98939.83
2018-07-30T04:31:17.526Z,98936.71
2018-07-30T04:33:51.882Z,98934.27
2018-07-30T04:36:26.405Z,98933.89
2018-07-30T04:39:01.098Z,98929.41
2018-07-30T04:41:35.773Z,98934.98
2018-07-30T04:44:22.025Z,98937.56
2018-07-30T04:46:56.621Z,98941.61
2018-07-30T04:49:31.579Z,98945.25
2018-07-30T04:52:06.185Z,98939.53
2018-07-30T04:54:40.947Z,98939.19
2018-07-30T04:57:15.409Z,98943.08
2018-07-30T04:59:49.863Z,98945.25
2018-07-30T05:02:24.445Z,98944.30
2018-07-30T05:04:58.991Z,98947.22
2018-07-30T05:07:33.490Z,98945.17
2018-07-30T05:10:08.076Z,98943.87
2018-07-30T05:12:42.965Z,98945.94
2018-07-30T05:15:17.517Z,98950.20
2018-07-30T05:17:52.120Z,98949.11
2018-07-30T05:20:26.616Z,98951.02
2018-07-30T05:23:01.569Z,98946.93
2018-07-30T05:25:36.096Z,98956.69
2018-07-30T05:28:10.677Z,98955.18
2018-07-30T05:30:45.197Z,98959.20
2018-07-30T05:33:19.709Z,98957.27
2018-07-30T05:35:54.840Z,98967.00
2018-07-30T05:38:29.340Z,98959.27
2018-07-30T05:41:03.810Z,98963.01
2018-07-30T05:43:38.336Z,98958.53
2018-07-30T05:46:12.982Z,98955.05
2018-07-30T05:48:47.550Z,98959.03
2018-07-30T05:51:21.931Z,98962.64
2018-07-30T05:53:56.516Z,98956.61
2018-07-30T05:56:31.308Z,98957.41
2018-07-30T05:59:05.816Z,98960.05
2018-07-30T06:01:40.238Z,98961.12
2018-07-30T06:04:18.558Z,98962.34
2018-07-30T06:06:52.994Z,98957.66
2018-07-30T06:09:27.699Z,98957.87
2018-07-30T06:12:02.207Z,98950.03
2018-07-30T06:14:36.591Z,98956.80
2018-07-30T06:17:10.953Z,98957.16
2018-07-30T06:19:45.388Z,98956.97
2018-07-30T06:22:20.089Z,98961.12
2018-07-30T06:24:55.029Z,98965.82
2018-07-30T06:27:29.689Z,98960.17
2018-07-30T06:30:05.472Z,98958.80
2018-07-30T06:32:40.177Z,98963.39
2018-07-30T06:35:14.801Z,98961.66
2018-07-30T06:37:49.675Z,98960.87
2018-07-30T06:40:24.182Z,98966.38
2018-07-30T06:42:58.798Z,98969.86
2018-07-30T06:45:33.380Z,98977.20
2018-07-30T06:48:07.821Z,98979.69
2018-07-30T06:50:42.388Z,98984.59
2018-07-30T06:53:16.890Z,98988.44
2018-07-30T06:55:51.426Z,98984.09
2018-07-30T06:58:26.103Z,98983.69
2018-07-30T07:01:00.771Z,98983.98
2018-07-30T07:03:42.692Z,98985.99
2018-07-30T07:06:17.125Z,98990.77
2018-07-30T07:08:51.922Z,98991.89
2018-07-30T07:11:26.562Z,98996.40
2018-07-30T07:14:01.084Z,99011.12
2018-07-30T07:16:35.478Z,99008.91
2018-07-30T07:19:10.199Z,99014.09
2018-07-30T07:21:44.734Z,99006.33
2018-07-30T07:24:19.435Z,99007.70
2018-07-30T07:26:54.068Z,99011.04
2018-07-30T07:29:28.449Z,99014.66
2018-07-30T07:32:03.038Z,99008.73
2018-07-30T07:34:37.593Z,99015.02
2018-07-30T07:37:12.152Z,99012.80
2018-07-30T07:39:46.476Z,99006.01
2018-07-30T07:42:20.816Z,99016.95
2018-07-30T07:44:55.452Z,99010.23
2018-07-30T07:47:30.258Z,99014.42
2018-07-30T07:50:05.414Z,99012.63
2018-07-30T07:52:39.632Z,99006.66
2018-07-30T07:55:14.181Z,99005.95
2018-07-30T07:57:48.505Z,99007.80
2018-07-30T08:00:22.893Z,99008.09
2018-07-30T08:02:57.693Z,99001.33
2018-07-30T08:05:32.241Z,99012.57
2018-07-30T08:08:06.789Z,99005.68
2018-07-30T08:10:41.338Z,99003.80
2018-07-30T08:13:15.784Z,99003.23
2018-07-30T08:15:50.298Z,99004.97
2018-07-30T08:18:24.876Z,98999.34
2018-07-30T08:20:59.423Z,98995.89
2018-07-30T08:23:33.902Z,98998.62
2018-07-30T08:26:08.340Z,99009.16
2018-07-30T08:28:42.734Z,99005.02
2018-07-30T08:31:17.194Z,99010.08
2018-07-30T08:33:51.628Z,99009.50
2018-07-30T08:36:32.560Z,99007.80
2018-07-30T08:39:09.067Z,99009.36
2018-07-30T08:41:43.537Z,99018.37
2018-07-30T08:44:23.761Z,99010.52
2018-07-30T08:46:58.572Z,99019.09
2018-07-30T08:49:33.109Z,99021.19
2018-07-30T08:52:07.691Z,99027.09
2018-07-30T08:54:42.199Z,99026.23
2018-07-30T08:57:16.558Z,99028.92
2018-07-30T08:59:50.909Z,99034.35
2018-07-30T09:02:25.420Z,99033.64
2018-07-30T09:04:59.981Z,99031.18
2018-07-30T09:07:34.820Z,99029.78
2018-07-30T09:10:09.575Z,99032.50
2018-07-30T09:12:44.190Z,99029.97
2018-07-30T09:15:18.481Z,99030.09
2018-07-30T09:17:52.950Z,99030.21
2018-07-30T09:20:27.860Z,99031.15
2018-07-30T09:23:02.299Z,99025.03
2018-07-30T09:25:36.650Z,99032.64
2018-07-30T09:28:11.168Z,99029.85
2018-07-30T09:30:45.958Z,99022.63
2018-07-30T09:33:20.697Z,99024.21
2018-07-30T09:35:55.285Z,99031.59
2018-07-30T09:38:29.858Z,99020.73
2018-07-30T09:41:04.404Z,99023.02
2018-07-30T09:43:39.246Z,99026.31
2018-07-30T09:46:13.798Z,99027.03
2018-07-30T09:48:48.296Z,99016.86
2018-07-30T09:51:22.719Z,99018.47
2018-07-30T09:53:57.284Z,99020.61
2018-07-30T09:56:31.710Z,99021.66
2018-07-30T09:59:06.771Z,99013.61
2018-07-30T10:01:41.212Z,99019.23
2018-07-30T10:04:25.937Z,99021.25
2018-07-30T10:07:00.591Z,99012.75
2018-07-30T10:09:34.968Z,99009.69
2018-07-30T10:12:09.695Z,99010.70
2018-07-30T10:14:44.204Z,99011.44
2018-07-30T10:17:18.781Z,99013.41
2018-07-30T10:19:53.465Z,99003.20
2018-07-30T10:22:28.581Z,99002.68
2018-07-30T10:25:02.836Z,98998.56
2018-07-30T10:27:37.330Z,99007.05
2018-07-30T10:30:11.794Z,99007.28
2018-07-30T10:32:46.215Z,99011.44
2018-07-30T10:35:20.540Z,99009.08
2018-07-30T10:37:55.315Z,99008.91
2018-07-30T10:40:29.697Z,99000.25
2018-07-30T10:43:04.286Z,98994.76
2018-07-30T10:45:38.676Z,98997.56
2018-07-30T10:48:13.327Z,98988.89
2018-07-30T10:50:47.737Z,98997.93
2018-07-30T10:53:22.228Z,98991.31
2018-07-30T10:55:57.146Z,98992.52
2018-07-30T10:58:31.714Z,98986.58
2018-07-30T11:01:06.881Z,98989.28
2018-07-30T11:03:41.987Z,98985.41
2018-07-30T11:06:20.220Z,98980.87
2018-07-30T11:08:54.661Z,98981.26
2018-07-30T11:11:42.859Z,98983.52
2018-07-30T11:14:21.712Z,98977.52
2018-07-30T11:17:15.541Z,98981.80
2018-07-30T11:19:49.989Z,98983.11
2018-07-30T11:22:24.432Z,98980.75
2018-07-30T11:25:07.874Z,98977.77
2018-07-30T11:27:42.508Z,98982.52
2018-07-30T11:30:37.140Z,98975.71
2018-07-30T11:33:13.985Z,98973.91
2018-07-30T11:35:55.382Z,98964.59
2018-07-30T11:41:37.048Z,98966.42
2018-07-30T11:44:11.572Z,98963.11
2018-07-30T11:46:45.893Z,98951.75
2018-07-30T11:49:20.242Z,98954.49
2018-07-30T11:51:54.865Z,98955.41
2018-07-30T11:54:29.465Z,98960.62
2018-07-30T11:57:03.845Z,98953.53
2018-07-30T11:59:38.325Z,98953.61
2018-07-30T12:02:12.868Z,98957.48
2018-07-30T12:04:47.329Z,98961.91
2018-07-30T12:07:21.889Z,98957.00
2018-07-30T12:09:56.549Z,98959.88
2018-07-30T12:12:31.116Z,98960.27
2018-07-30T12:15:05.700Z,98958.44
2018-07-30T12:17:40.264Z,98962.89
2018-07-30T12:20:14.576Z,98958.13
2018-07-30T12:22:49.330Z,98955.43
2018-07-30T12:25:23.901Z,98947.16
2018-07-30T12:27:58.263Z,98947.47
2018-07-30T12:30:32.734Z,98947.00
2018-07-30T12:33:07.173Z,98941.08
2018-07-30T12:35:41.833Z,98933.87
2018-07-30T12:38:16.358Z,98942.78
2018-07-30T12:40:50.977Z,98939.31
2018-07-30T12:43:25.800Z,98940.33
2018-07-30T12:46:00.242Z,98937.20
2018-07-30T12:48:35.046Z,98931.02
2018-07-30T12:51:09.589Z,98926.70
2018-07-30T12:53:44.181Z,98927.22
2018-07-30T12:56:18.708Z,98921.45
2018-07-30T12:58:53.177Z,98923.91
2018-07-30T13:01:27.569Z,98918.53
2018-07-30T13:04:02.063Z,98916.88
2018-07-30T13:06:36.822Z,98914.06
2018-07-30T13:09:11.451Z,98917.58
2018-07-30T13:11:46.004Z,98914.52
2018-07-30T13:14:20.489Z,98901.60
2018-07-30T13:16:55.065Z,98905.72
2018-07-30T13:19:29.431Z,98903.20
2018-07-30T13:22:04.162Z,98895.22
2018-07-30T13:24:39.033Z,98900.30
2018-07-30T13:27:13.542Z,98895.34
2018-07-30T13:29:47.837Z,98898.94
2018-07-30T13:32:22.486Z,98893.66
2018-07-30T13:34:57.013Z,98896.14
2018-07-30T13:37:31.412Z,98890.76
2018-07-30T13:40:06.083Z,98891.22
2018-07-30T13:42:40.701Z,98885.42
2018-07-30T13:45:15.090Z,98883.23
2018-07-30T13:47:49.535Z,98878.46
2018-07-30T13:50:24.043Z,98871.50
2018-07-30T13:52:58.434Z,98872.07
2018-07-30T13:55:33.032Z,98875.70
2018-07-30T13:58:07.415Z,98880.84
2018-07-30T14:00:42.110Z,98877.05
2018-07-30T14:03:17.070Z,98867.70
2018-07-30T14:05:52.046Z,98871.77
2018-07-30T14:08:26.743Z,98870.78
2018-07-30T14:11:01.172Z,98871.00
2018-07-30T14:13:35.601Z,98869.34
2018-07-30T14:16:09.977Z,98863.63
2018-07-30T14:18:44.392Z,98869.39
2018-07-30T14:21:18.885Z,98869.97
2018-07-30T14:23:53.901Z,98864.55
2018-07-30T14:26:28.808Z,98869.41
2018-07-30T14:29:03.429Z,98862.80
2018-07-30T14:31:37.844Z,98863.53
2018-07-30T14:34:30.340Z,98859.64
2018-07-30T14:37:04.788Z,98857.08
2018-07-30T14:39:39.136Z,98861.05
2018-07-30T14:42:13.510Z,98864.05
2018-07-30T14:44:47.988Z,98857.77
2018-07-30T14:47:22.598Z,98855.22
2018-07-30T14:49:57.089Z,98858.04
2018-07-30T14:52:31.472Z,98854.12
2018-07-30T14:55:07.156Z,98847.93
2018-07-30T14:57:41.746Z,98848.73
2018-07-30T15:00:16.351Z,98840.59
2018-07-30T15:02:51.138Z,98836.80
2018-07-30T15:05:25.791Z,98836.87
2018-07-30T15:08:00.252Z,98828.50
2018-07-30T15:10:34.854Z,98831.48
2018-07-30T15:13:09.556Z,98831.17
2018-07-30T15:15:44.002Z,98828.66
2018-07-30T15:18:18.604Z,98827.17
2018-07-30T15:20:53.044Z,98824.53
2018-07-30T15:23:27.498Z,98822.48
2018-07-30T15:26:01.904Z,98824.30
2018-07-30T15:28:36.614Z,98823.98
2018-07-30T15:31:11.148Z,98820.22
2018-07-30T15:33:45.717Z,98821.06
2018-07-30T15:36:20.486Z,98815.80
2018-07-30T15:38:54.838Z,98814.33
2018-07-30T15:41:29.229Z,98814.13
2018-07-30T15:44:04.289Z,98815.71
2018-07-30T15:46:38.963Z,98821.37
2018-07-30T15:49:15.375Z,98820.15
2018-07-30T15:51:49.977Z,98822.44
2018-07-30T15:54:24.328Z,98815.39
2018-07-30T15:56:59.000Z,98819.34
2018-07-30T15:59:33.777Z,98804.13
2018-07-30T16:02:14.548Z,98805.53
2018-07-30T16:04:48.887Z,98811.27
2018-07-30T16:07:23.524Z,98811.92
2018-07-30T16:09:58.029Z,98810.89
2018-07-30T16:12:32.909Z,98813.08
2018-07-30T16:15:08.233Z,98807.41
2018-07-30T16:17:43.004Z,98806.94
2018-07-30T16:20:34.628Z,98813.81
2018-07-30T16:23:16.437Z,98810.75
2018-07-30T16:25:51.430Z,98812.45
2018-07-30T16:28:25.868Z,98812.41
2018-07-30T16:31:00.318Z,98808.68
2018-07-30T16:33:35.025Z,98814.40
2018-07-30T16:36:09.726Z,98815.16
2018-07-30T16:38:44.245Z,98816.20
2018-07-30T16:41:18.684Z,98813.42
2018-07-30T16:43:53.129Z,98812.77
2018-07-30T16:46:27.616Z,98810.15
2018-07-30T16:49:02.146Z,98816.08
2018-07-30T16:51:36.782Z,98818.59
2018-07-30T16:54:11.397Z,98824.86
2018-07-30T16:56:45.952Z,98817.91
2018-07-30T16:59:20.948Z,98819.73
2018-07-30T17:01:55.309Z,98811.91
2018-07-30T17:04:29.838Z,98823.86
2018-07-30T17:07:04.596Z,98819.98
2018-07-30T17:09:39.313Z,98817.92
2018-07-30T17:12:13.683Z,98815.56
2018-07-30T17:14:48.156Z,98814.48
2018-07-30T17:17:22.624Z,98818.63
2018-07-30T17:19:57.138Z,98814.66
2018-07-30T17:22:31.744Z,98819.98
2018-07-30T17:25:06.661Z,98823.20
2018-07-30T17:27:41.673Z,98822.91
2018-07-30T17:30:17.320Z,98823.25
2018-07-30T17:32:51.725Z,98818.87
2018-07-30T17:35:26.092Z,98826.59
2018-07-30T17:38:00.683Z,98827.09
2018-07-30T17:40:35.012Z,98823.98
2018-07-30T17:43:09.660Z,98825.80
2018-07-30T17:45:44.133Z,98823.94
2018-07-30T17:48:18.553Z,98823.62
2018-07-30T17:50:53.254Z,98821.40
2018-07-30T17:53:27.768Z,98822.70
2018-07-30T17:56:02.189Z,98822.50
2018-07-30T17:58:36.636Z,98824.47
2018-07-30T18:01:11.069Z,98830.52
2018-07-30T18:03:52.999Z,98823.77
2018-07-30T18:06:27.663Z,98825.05
2018-07-30T18:09:08.364Z,98826.94
2018-07-30T18:11:42.743Z,98829.70
2018-07-30T18:14:17.112Z,98825.53
2018-07-30T18:16:51.809Z,98830.77
2018-07-30T18:19:26.089Z,98834.37
2018-07-30T18:22:00.358Z,98831.84
2018-07-30T18:24:34.999Z,98835.47
2018-07-30T18:27:09.536Z,98843.16
2018-07-30T18:29:43.917Z,98844.92
2018-07-30T18:32:18.295Z,98841.69
2018-07-30T18:34:52.599Z,98841.83
2018-07-30T18:37:27.038Z,98847.14
2018-07-30T18:40:01.668Z,98845.48
2018-07-30T18:42:35.975Z,98845.73
2018-07-30T18:45:10.327Z,98847.98
2018-07-30T18:47:44.697Z,98850.33
2018-07-30T18:50:18.955Z,98843.25
2018-07-30T18:52:53.441Z,98852.77
2018-07-30T18:55:27.831Z,98853.70
2018-07-30T18:58:02.204Z,98854.75
2018-07-30T19:00:36.724Z,98853.59
2018-07-30T19:03:11.112Z,98861.23
2018-07-30T19:05:45.553Z,98867.91
2018-07-30T19:08:20.088Z,98867.84
2018-07-30T19:10:54.547Z,98874.36
2018-07-30T19:13:28.986Z,98873.11
2018-07-30T19:16:03.486Z,98880.17
2018-07-30T19:18:37.927Z,98881.88
2018-07-30T19:21:12.104Z,98881.73
2018-07-30T19:23:46.405Z,98887.14
2018-07-30T19:26:20.883Z,98893.98
2018-07-30T19:28:55.270Z,98894.20
2018-07-30T19:31:29.712Z,98902.88
2018-07-30T19:34:04.143Z,98899.47
2018-07-30T19:36:38.508Z,98900.34
2018-07-30T19:39:13.856Z,98904.44
2018-07-30T19:41:48.157Z,98908.53
2018-07-30T19:47:34.025Z,98912.30
2018-07-30T19:50:08.395Z,98911.37
2018-07-30T19:52:42.735Z,98912.25
2018-07-30T19:55:17.011Z,98914.74
2018-07-30T19:57:51.586Z,98909.84
2018-07-30T20:00:26.045Z,98914.09
2018-07-30T20:03:00.376Z,98918.72
2018-07-30T20:05:34.613Z,98916.77
2018-07-30T20:08:09.341Z,98916.45
2018-07-30T20:10:43.853Z,98920.83
2018-07-30T20:13:18.331Z,98926.27
2018-07-30T20:15:58.595Z,98920.36
2018-07-30T20:18:33.178Z,98927.77
2018-07-30T20:21:07.833Z,98926.47
2018-07-30T20:23:42.358Z,98929.66
2018-07-30T20:26:16.866Z,98931.48
2018-07-30T20:28:51.528Z,98930.70
2018-07-30T20:31:27.320Z,98931.89
2018-07-30T20:34:01.815Z,98931.16
2018-07-30T20:36:36.263Z,98930.77
2018-07-30T20:39:10.798Z,98930.77
2018-07-30T20:41:45.221Z,98933.99
2018-07-30T20:44:19.807Z,98928.26
2018-07-30T20:46:54.348Z,98932.67
2018-07-30T20:49:28.889Z,98931.52
2018-07-30T20:52:03.600Z,98935.09
2018-07-30T20:54:38.270Z,98937.05
2018-07-30T20:57:12.998Z,98933.10
2018-07-30T20:59:48.398Z,98941.66
2018-07-30T21:02:22.940Z,98943.02
2018-07-30T21:04:57.466Z,98947.34
2018-07-30T21:07:32.008Z,98948.73
2018-07-30T21:10:06.482Z,98946.59
2018-07-30T21:12:40.920Z,98953.20
2018-07-30T21:15:15.497Z,98954.80
2018-07-30T21:17:50.468Z,98953.02
2018-07-30T21:20:25.073Z,98946.89
2018-07-30T21:22:59.516Z,98949.70
2018-07-30T21:25:33.931Z,98956.47
2018-07-30T21:28:09.051Z,98942.00
2018-07-30T21:30:43.582Z,98950.72
2018-07-30T21:33:18.156Z,98951.72
2018-07-30T21:35:52.825Z,98952.50
2018-07-30T21:38:27.446Z,98954.09
2018-07-30T21:44:02.601Z,98949.36
2018-07-30T21:46:37.244Z,98949.19
2018-07-30T21:49:12.160Z,98956.91
2018-07-30T21:51:46.730Z,98963.06
2018-07-30T21:54:21.225Z,98959.89
2018-07-30T21:56:56.240Z,98964.27
2018-07-30T21:59:30.708Z,98969.84
2018-07-30T22:02:05.145Z,98966.08
2018-07-30T22:04:40.525Z,98964.08
2018-07-30T22:07:15.091Z,98973.61
2018-07-30T22:09:49.688Z,98973.59
2018-07-30T22:12:24.201Z,98976.54
2018-07-30T22:14:58.905Z,98980.68
2018-07-30T22:17:33.310Z,98979.48
2018-07-30T22:20:07.881Z,98984.03
2018-07-30T22:22:42.407Z,98983.25
2018-07-30T22:25:16.763Z,98980.27
2018-07-30T22:27:51.418Z,98977.09
2018-07-30T22:30:25.991Z,98980.47
2018-07-30T22:33:01.009Z,98973.95
2018-07-30T22:35:35.840Z,98971.58
2018-07-30T22:38:10.868Z,98974.19
2018-07-30T22:40:45.396Z,98975.39
2018-07-30T22:43:20.072Z,98971.63
2018-07-30T22:45:54.439Z,98975.81
2018-07-30T22:48:29.092Z,98973.05
2018-07-30T22:51:03.963Z,98972.04
2018-07-30T22:53:38.489Z,98970.44
2018-07-30T22:56:12.965Z,98970.66
2018-07-30T22:58:47.570Z,98974.99
2018-07-30T23:01:22.245Z,98968.45
2018-07-30T23:03:56.816Z,98965.28
2018-07-30T23:06:31.508Z,98964.89
2018-07-30T23:09:07.540Z,98968.64
2018-07-30T23:11:42.338Z,98965.88
2018-07-30T23:14:17.265Z,98966.08
2018-07-30T23:16:51.817Z,98971.23
2018-07-30T23:19:26.366Z,98970.23
2018-07-30T23:22:01.305Z,98964.89
2018-07-30T23:24:35.916Z,98970.83
2018-07-30T23:27:10.457Z,98968.45
2018-07-30T23:29:44.992Z,98962.70
2018-07-30T23:32:20.293Z,98968.58
2018-07-30T23:34:55.333Z,98963.23
2018-07-30T23:37:30.004Z,98959.23
2018-07-30T23:40:04.941Z,98952.65
2018-07-30T23:42:39.896Z,98960.16
2018-07-30T23:45:14.683Z,98953.84
2018-07-30T23:47:49.046Z,98950.34
2018-07-30T23:50:23.683Z,98948.75
2018-07-30T23:52:58.106Z,98944.73
2018-07-30T23:55:33.179Z,98950.27
2018-07-30T23:58:08.100Z,98942.37
